Time;durP1;ratioP1;P1;durP2;ratioP2;P2;SDS_P1;SDS_P2;PMS_P1;PMS_P2;Temp;Humidity;BMP_temperature;BMP_pressure;BME280_temperature;BME280_humidity;BME280_pressure;Samples;Min_cycle;Max_cycle;Signal;HPM_P1;HPM_P2
2024/04/04 00:00:10;;;;;;;12.32;1.83;;;10.30;9.00;;;;;;20263829;29;20056;-45
2024/04/04 00:10:11;;;;;;;7.75;1.90;;;10.00;12.40;;;;;;20271130;29;20058;-44
2024/04/04 00:20:15;;;;;;;12.90;2.13;;;9.90;12.70;;;;;;20264832;29;20036;-44
2024/04/04 00:30:15;;;;;;;14.02;2.85;;;9.90;13.00;;;;;;20266788;29;20442;-44
2024/04/04 00:40:16;;;;;;;9.67;2.23;;;9.80;15.30;;;;;;20264920;29;20457;-44
2024/04/04 00:50:17;;;;;;;8.05;1.50;;;9.70;18.80;;;;;;20202891;29;20538;-45
2024/04/04 01:00:18;;;;;;;11.30;1.90;;;9.50;23.40;;;;;;20185752;29;20499;-44
2024/04/04 01:10:19;;;;;;;11.82;1.95;;;9.30;28.60;;;;;;20187197;29;20525;-45
2024/04/04 01:20:19;;;;;;;13.20;1.85;;;9.30;29.70;;;;;;20191944;29;20044;-44
2024/04/04 01:30:20;;;;;;;8.40;1.83;;;9.30;28.00;;;;;;20186200;29;20037;-44
2024/04/04 01:40:20;;;;;;;13.00;1.77;;;9.60;40.90;;;;;;20187361;29;20135;-44
2024/04/04 01:50:21;;;;;;;7.43;1.65;;;9.50;95.40;;;;;;20244685;29;20044;-44
2024/04/04 02:00:24;;;;;;;8.30;1.55;;;9.40;99.90;;;;;;20255195;29;20109;-44
2024/04/04 02:10:24;;;;;;;12.10;2.00;;;9.50;99.90;;;;;;20259188;29;20715;-44
2024/04/04 02:20:25;;;;;;;9.68;2.15;;;9.40;99.90;;;;;;20256147;29;20051;-44
2024/04/04 02:30:26;;;;;;;14.05;2.50;;;9.40;99.90;;;;;;20253477;29;20037;-44
2024/04/04 02:40:27;;;;;;;9.18;3.00;;;9.40;99.90;;;;;;20256008;29;20519;-44
2024/04/04 02:50:28;;;;;;;9.35;2.42;;;9.40;99.90;;;;;;20256606;29;20048;-44
2024/04/04 03:00:29;;;;;;;10.43;2.58;;;9.40;99.90;;;;;;20257227;29;20078;-44
2024/04/04 03:10:31;;;;;;;9.93;2.20;;;9.50;99.90;;;;;;20264934;29;20077;-44
2024/04/04 03:20:32;;;;;;;10.20;2.03;;;9.50;99.90;;;;;;20272933;29;20051;-44
2024/04/04 03:30:33;;;;;;;8.52;1.75;;;9.50;99.90;;;;;;20270727;29;20048;-44
2024/04/04 03:40:33;;;;;;;8.30;2.08;;;9.50;99.90;;;;;;20270265;29;20044;-43
2024/04/04 03:50:34;;;;;;;9.00;2.83;;;9.40;99.90;;;;;;20273727;29;20051;-44
2024/04/04 04:00:35;;;;;;;11.48;2.65;;;9.50;99.90;;;;;;20266176;29;20040;-44
2024/04/04 04:10:37;;;;;;;8.23;3.05;;;9.40;99.90;;;;;;20271347;29;20047;-43
2024/04/04 04:30:57;;;;;;;8.15;4.55;;;9.50;99.90;;;;;;20267953;29;20445;-43
2024/04/04 04:41:04;;;;;;;15.40;6.80;;;9.50;99.90;;;;;;20267810;29;20477;-43
2024/04/04 04:51:05;;;;;;;14.93;8.48;;;9.60;99.90;;;;;;20264164;29;20565;-44
2024/04/04 05:01:05;;;;;;;10.27;7.90;;;9.70;99.90;;;;;;20263203;29;20040;-43
2024/04/04 05:11:06;;;;;;;13.57;8.73;;;9.80;99.90;;;;;;20264897;29;20457;-44
2024/04/04 05:21:07;;;;;;;13.43;8.70;;;10.00;99.90;;;;;;20266056;29;20040;-44
2024/04/04 05:31:07;;;;;;;11.27;8.25;;;10.10;99.90;;;;;;20264780;29;20059;-44
2024/04/04 05:41:09;;;;;;;11.93;8.20;;;10.10;1.00;;;;;;20265663;29;20496;-43
2024/04/04 05:51:09;;;;;;;13.15;8.07;;;10.30;1.00;;;;;;20265186;29;21054;-44
2024/04/04 06:01:11;;;;;;;13.50;7.45;;;10.30;1.00;;;;;;20264623;29;20501;-44
2024/04/04 06:11:12;;;;;;;11.85;7.22;;;10.40;1.00;;;;;;20260452;29;20232;-43
2024/04/04 06:21:12;;;;;;;11.07;5.90;;;10.50;1.00;;;;;;20265700;29;20031;-44
2024/04/04 06:31:13;;;;;;;12.53;5.70;;;10.70;1.00;;;;;;20264359;29;20037;-44
2024/04/04 06:41:14;;;;;;;13.40;6.15;;;10.80;1.00;;;;;;20264833;29;20055;-44
2024/04/04 06:51:15;;;;;;;12.10;5.83;;;10.90;1.00;;;;;;20281162;29;20048;-45
2024/04/04 07:01:15;;;;;;;7.90;4.68;;;11.10;1.00;;;;;;20272112;29;20456;-45
2024/04/04 07:11:16;;;;;;;10.35;4.95;;;11.20;1.00;;;;;;20267374;29;20056;-45
2024/04/04 07:21:16;;;;;;;7.88;4.45;;;11.20;1.00;;;;;;20273488;29;20481;-45
2024/04/04 07:31:17;;;;;;;9.07;4.43;;;11.30;1.00;;;;;;20263460;29;20036;-44
2024/04/04 07:41:18;;;;;;;10.43;4.00;;;11.50;1.00;;;;;;20266602;29;20587;-44
2024/04/04 07:51:19;;;;;;;8.80;3.57;;;11.50;1.00;;;;;;20276000;29;20113;-44
2024/04/04 08:01:20;;;;;;;8.60;4.25;;;11.50;1.00;;;;;;20278094;29;20893;-44
2024/04/04 08:11:21;;;;;;;10.15;4.53;;;11.50;1.00;;;;;;20275393;29;20095;-44
2024/04/04 08:21:22;;;;;;;12.13;4.30;;;11.80;1.00;;;;;;20279572;29;20045;-45
2024/04/04 08:31:22;;;;;;;10.43;3.92;;;12.00;1.00;;;;;;20278894;29;20052;-43
2024/04/04 08:41:23;;;;;;;10.48;3.85;;;12.20;1.00;;;;;;20280751;29;20043;-44
2024/04/04 08:51:25;;;;;;;6.53;2.30;;;12.30;99.90;;;;;;20278100;29;20052;-45
2024/04/04 09:01:26;;;;;;;8.25;2.28;;;12.20;99.90;;;;;;20275844;29;20198;-43
2024/04/04 09:11:28;;;;;;;9.07;2.47;;;12.10;99.90;;;;;;20276039;29;20040;-43
2024/04/04 09:21:28;;;;;;;5.22;1.90;;;12.30;99.90;;;;;;20273708;29;20106;-44
2024/04/04 09:31:33;;;;;;;5.05;1.35;;;12.20;99.90;;;;;;20273664;29;20485;-44
2024/04/04 09:41:36;;;;;;;8.95;1.60;;;12.30;99.90;;;;;;20275417;29;20251;-44
2024/04/04 09:51:38;;;;;;;8.60;1.70;;;12.60;99.90;;;;;;20277940;29;20044;-44
2024/04/04 10:01:39;;;;;;;11.15;2.28;;;13.10;99.90;;;;;;20273697;29;20056;-44
2024/04/04 10:11:40;;;;;;;6.10;1.10;;;13.20;41.40;;;;;;20272227;29;20044;-43
2024/04/04 10:21:41;;;;;;;7.78;1.33;;;13.30;28.30;;;;;;20273795;29;20433;-43
2024/04/04 10:31:42;;;;;;;10.05;1.50;;;14.00;9.50;;;;;;20271241;29;20439;-43
2024/04/04 10:41:48;;;;;;;7.75;1.45;;;14.40;1.00;;;;;;20269210;29;20055;-43
2024/04/04 10:51:49;;;;;;;6.80;1.30;;;14.70;1.00;;;;;;20272944;29;20112;-43
2024/04/04 11:01:51;;;;;;;8.90;1.55;;;15.30;1.00;;;;;;20269874;29;20472;-44
2024/04/04 11:11:54;;;;;;;10.13;1.83;;;15.40;1.00;;;;;;20269043;29;20055;-43
2024/04/04 11:21:55;;;;;;;12.02;2.00;;;15.30;1.00;;;;;;20269112;29;20072;-43
2024/04/04 11:31:55;;;;;;;13.13;1.90;;;15.10;1.00;;;;;;20279275;29;20050;-45
2024/04/04 11:41:56;;;;;;;13.65;1.98;;;15.40;1.00;;;;;;20281682;29;20049;-44
2024/04/04 11:51:56;;;;;;;11.32;2.25;;;15.20;1.00;;;;;;20282383;29;20048;-44
2024/04/04 12:01:57;;;;;;;17.17;2.47;;;14.80;1.00;;;;;;20281134;29;20140;-44
2024/04/04 12:11:58;;;;;;;11.15;1.98;;;15.40;1.00;;;;;;20283232;29;20044;-44
2024/04/04 12:21:58;;;;;;;10.40;2.05;;;15.10;1.00;;;;;;20281351;29;20054;-44
2024/04/04 12:31:59;;;;;;;11.25;2.03;;;14.80;1.00;;;;;;20282692;29;20390;-45
2024/04/04 12:41:59;;;;;;;12.98;2.22;;;15.50;1.00;;;;;;20276665;29;20074;-45
2024/04/04 12:52:01;;;;;;;15.07;2.67;;;16.20;1.00;;;;;;20279980;29;20052;-45
2024/04/04 13:02:01;;;;;;;15.13;2.60;;;16.20;1.00;;;;;;20274862;29;20628;-45
2024/04/04 13:12:03;;;;;;;14.43;2.42;;;17.10;1.00;;;;;;20274325;29;20310;-45
2024/04/04 13:22:05;;;;;;;20.17;3.30;;;17.20;1.00;;;;;;20276523;29;20044;-44
2024/04/04 13:32:06;;;;;;;20.30;3.78;;;16.30;1.00;;;;;;20275259;29;20044;-44
2024/04/04 13:42:07;;;;;;;16.88;3.85;;;15.70;1.00;;;;;;20274162;29;20055;-45
2024/04/04 13:52:08;;;;;;;21.70;3.80;;;15.50;1.00;;;;;;20273112;29;20059;-45
2024/04/04 14:02:11;;;;;;;26.95;4.40;;;15.70;1.00;;;;;;20274727;29;20072;-45
2024/04/04 14:12:13;;;;;;;28.85;4.13;;;15.20;1.00;;;;;;20272024;29;20108;-44
2024/04/04 14:22:14;;;;;;;21.77;3.30;;;14.80;1.00;;;;;;20277078;29;20040;-44
2024/04/04 14:32:14;;;;;;;24.10;3.77;;;15.50;1.00;;;;;;20273294;29;20054;-44
2024/04/04 14:42:16;;;;;;;24.33;3.83;;;15.40;1.00;;;;;;20274249;29;20416;-44
2024/04/04 14:52:17;;;;;;;23.55;3.38;;;15.40;1.00;;;;;;20273254;29;20451;-44
2024/04/04 15:02:17;;;;;;;17.35;3.17;;;15.60;1.00;;;;;;20271894;29;20044;-44
2024/04/04 15:12:18;;;;;;;22.52;3.70;;;15.80;1.00;;;;;;20285077;29;20044;-44
2024/04/04 15:22:19;;;;;;;23.70;3.67;;;15.50;1.00;;;;;;20284815;29;20656;-43
2024/04/04 15:32:19;;;;;;;23.10;4.13;;;14.90;1.00;;;;;;20283879;29;20464;-43
2024/04/04 15:42:20;;;;;;;21.17;3.53;;;14.70;1.00;;;;;;20284899;29;20492;-44
2024/04/04 15:52:22;;;;;;;20.92;3.90;;;14.60;1.00;;;;;;20205406;29;20056;-45
2024/04/04 16:02:27;;;;;;;30.23;4.97;;;14.50;1.00;;;;;;20191387;29;20112;-45
2024/04/04 16:12:27;;;;;;;24.80;4.93;;;14.70;1.00;;;;;;20195805;29;20052;-45
2024/04/04 16:22:28;;;;;;;24.95;3.88;;;14.60;1.00;;;;;;20199418;29;20049;-44
2024/04/04 16:32:28;;;;;;;22.33;4.32;;;14.50;1.00;;;;;;20193372;29;20055;-44
2024/04/04 16:42:29;;;;;;;20.83;4.20;;;14.50;1.00;;;;;;20196266;29;20041;-44
2024/04/04 16:52:30;;;;;;;32.45;5.47;;;14.50;1.00;;;;;;20266413;29;20048;-44
2024/04/04 17:02:31;;;;;;;23.88;4.55;;;14.50;1.00;;;;;;20260322;29;20067;-43
2024/04/04 17:12:35;;;;;;;30.65;5.45;;;14.30;1.00;;;;;;20260720;29;20044;-45
2024/04/04 17:22:36;;;;;;;32.33;5.63;;;14.20;1.00;;;;;;20260542;29;20163;-44
2024/04/04 17:32:36;;;;;;;32.90;5.67;;;14.00;1.00;;;;;;20271048;29;20048;-43
2024/04/04 17:42:39;;;;;;;30.80;5.57;;;14.00;1.00;;;;;;20270031;29;20124;-43
2024/04/04 17:52:39;;;;;;;42.38;8.90;;;13.90;1.00;;;;;;20273661;29;20059;-44
2024/04/04 18:02:41;;;;;;;29.25;5.50;;;13.80;1.00;;;;;;20267811;29;20071;-43
2024/04/04 18:12:41;;;;;;;36.60;6.22;;;13.60;1.00;;;;;;20267297;29;20573;-43
2024/04/04 18:22:42;;;;;;;33.90;6.00;;;13.50;1.00;;;;;;20267317;29;20066;-43
2024/04/04 18:32:43;;;;;;;51.22;7.90;;;13.30;1.00;;;;;;20267845;29;20052;-44
2024/04/04 18:42:46;;;;;;;41.50;7.18;;;13.30;1.00;;;;;;20265982;29;20048;-44
2024/04/04 18:52:47;;;;;;;40.00;6.80;;;13.30;1.30;;;;;;20263230;29;20127;-44
2024/04/04 19:02:47;;;;;;;45.17;7.05;;;13.20;3.30;;;;;;20260605;29;20051;-44
2024/04/04 19:12:48;;;;;;;36.25;6.18;;;13.20;2.60;;;;;;20264508;29;20629;-43
2024/04/04 19:22:49;;;;;;;33.30;6.28;;;13.20;1.00;;;;;;20260409;29;20076;-44
2024/04/04 19:32:49;;;;;;;27.20;4.50;;;13.10;1.00;;;;;;20265126;29;20518;-44
2024/04/04 19:42:50;;;;;;;27.83;4.57;;;13.00;1.00;;;;;;20251171;29;20056;-44
2024/04/04 19:52:51;;;;;;;32.22;4.45;;;13.00;1.00;;;;;;20261575;29;20044;-45
2024/04/04 20:02:51;;;;;;;29.65;4.63;;;13.00;1.00;;;;;;20266391;29;20481;-44
2024/04/04 20:12:52;;;;;;;29.53;4.23;;;13.10;1.00;;;;;;20264608;29;20048;-44
2024/04/04 20:22:53;;;;;;;26.75;4.93;;;13.10;1.00;;;;;;20262352;29;20052;-44
2024/04/04 20:32:54;;;;;;;37.07;5.80;;;13.00;1.00;;;;;;20265633;29;20050;-44
2024/04/04 20:42:54;;;;;;;30.73;4.95;;;12.90;1.00;;;;;;20277143;29;20473;-44
2024/04/04 20:52:55;;;;;;;31.38;5.15;;;12.70;1.00;;;;;;20281015;29;20607;-44
2024/04/04 21:02:56;;;;;;;28.20;4.22;;;12.60;1.00;;;;;;20273460;29;20366;-44
2024/04/04 21:12:57;;;;;;;22.75;3.90;;;12.50;1.00;;;;;;20275815;29;20123;-44
2024/04/04 21:22:58;;;;;;;27.58;4.03;;;12.40;1.00;;;;;;20266491;29;20388;-44
2024/04/04 21:32:59;;;;;;;21.17;4.20;;;12.30;1.00;;;;;;20263844;29;20044;-44
2024/04/04 21:42:59;;;;;;;23.80;3.92;;;12.20;1.00;;;;;;20261268;29;20048;-45
2024/04/04 21:53:01;;;;;;;17.45;3.53;;;12.10;1.00;;;;;;20263506;29;20138;-44
2024/04/04 22:03:01;;;;;;;20.83;4.03;;;12.20;1.00;;;;;;20261992;29;20083;-45
2024/04/04 22:13:03;;;;;;;18.33;3.30;;;12.10;1.00;;;;;;20258952;29;20032;-44
2024/04/04 22:23:03;;;;;;;22.05;4.20;;;12.10;1.00;;;;;;20268204;29;20056;-44
2024/04/04 22:33:04;;;;;;;19.42;3.65;;;12.00;1.00;;;;;;20264811;29;20048;-44
2024/04/04 22:43:05;;;;;;;24.45;4.05;;;12.00;1.00;;;;;;20256523;29;20482;-45
2024/04/04 22:53:06;;;;;;;24.33;4.93;;;12.00;1.00;;;;;;20260204;29;20059;-45
2024/04/04 23:03:07;;;;;;;29.67;4.40;;;12.10;3.30;;;;;;20257337;29;20416;-44
2024/04/04 23:13:07;;;;;;;28.98;4.07;;;12.20;4.80;;;;;;20258163;29;20056;-44
2024/04/04 23:23:08;;;;;;;33.40;4.53;;;12.30;5.80;;;;;;20253479;29;20217;-44
2024/04/04 23:33:09;;;;;;;30.00;4.18;;;12.20;10.80;;;;;;20267289;29;20040;-44
2024/04/04 23:43:09;;;;;;;33.92;4.70;;;12.20;13.90;;;;;;20275243;29;20055;-44
2024/04/04 23:53:10;;;;;;;29.07;4.03;;;12.30;16.10;;;;;;20275006;29;20127;-44
